Tygh Valley, Oregon
Current Conditions -  °F | °C
As of 6:12 AM on Tuesday 21 Oct 2014 (Local Time) from KDLS Reporting Station
Broken Clouds Broken Clouds  
Wind Chill: 44°   Ceiling: 8500
Heat Index: 48°   Visibility: 10mi
Dew Point: 45°   Wind: 8mph
Humidity: 89%   Direction: 120°ESE
Pressure: 29.92"   Gusts: NA
Location:  45.25°N, 121.18°W
Report Text: KDLS 211312Z AUTO 12007KT 10SM FEW008 SCT060 BKN085 09/07 A2992 RMK AO2 T00890072
Loading
Personal Weather Stations






























Interactive Weather Map
Tropical Storm Tracking
New forecast layout! Learn more

10-Day Weather Forecast

Advertisements
Track Severe Weather on mobile